createdAt,value
2022-12-29T00:00:50.197Z,6.52
2022-12-29T00:01:50.108Z,6.62
2022-12-29T00:02:51.587Z,6.59
2022-12-29T00:03:51.572Z,6.6
2022-12-29T00:04:51.651Z,6.71
2022-12-29T00:05:52.307Z,6.57
2022-12-29T00:06:53.576Z,6.6
2022-12-29T00:07:54.155Z,6.57
2022-12-29T00:08:54.385Z,6.64
2022-12-29T00:09:55.018Z,6.62
2022-12-29T00:10:55.621Z,6.6
2022-12-29T00:11:56.133Z,6.62
2022-12-29T00:12:56.788Z,6.64
2022-12-29T00:13:57.306Z,6.59
2022-12-29T00:14:57.568Z,6.6
2022-12-29T00:15:57.987Z,6.62
2022-12-29T00:16:58.335Z,6.59
2022-12-29T00:17:58.868Z,6.47
2022-12-29T00:18:59.132Z,6.59
2022-12-29T00:19:59.344Z,6.52
2022-12-29T00:21:00.417Z,6.46
2022-12-29T00:22:01.208Z,6.46
2022-12-29T00:23:02.147Z,6.52
2022-12-29T00:24:02.368Z,6.43
2022-12-29T00:25:02.331Z,6.5
2022-12-29T00:26:03.629Z,6.47
2022-12-29T00:27:03.843Z,6.47
2022-12-29T00:28:12.102Z,6.43
2022-12-29T00:29:05.160Z,6.41
2022-12-29T00:30:05.025Z,6.46
2022-12-29T00:31:06.466Z,6.46
2022-12-29T00:32:06.308Z,6.39
2022-12-29T00:33:07.550Z,6.38
2022-12-29T00:34:07.738Z,6.38
2022-12-29T00:35:07.604Z,6.36
2022-12-29T00:36:08.133Z,6.39
2022-12-29T00:37:09.024Z,6.36
2022-12-29T00:38:09.396Z,6.38
2022-12-29T00:39:09.611Z,6.36
2022-12-29T00:40:10.106Z,6.32
2022-12-29T00:41:10.433Z,6.36
2022-12-29T00:42:11.375Z,6.36
2022-12-29T00:43:12.120Z,6.36
2022-12-29T00:44:12.898Z,6.34
2022-12-29T00:45:13.009Z,6.34
2022-12-29T00:46:20.461Z,6.35
2022-12-29T00:47:14.725Z,6.36
2022-12-29T00:48:14.727Z,6.35
2022-12-29T00:49:15.260Z,6.32
2022-12-29T00:50:15.956Z,6.32
2022-12-29T00:51:18.696Z,6.29
2022-12-29T00:52:17.046Z,6.36
2022-12-29T00:53:18.140Z,6.36
2022-12-29T00:54:18.763Z,6.39
2022-12-29T00:55:19.250Z,6.36
2022-12-29T00:56:19.446Z,6.34
2022-12-29T00:57:20.090Z,6.34
2022-12-29T00:58:21.029Z,6.39
2022-12-29T00:59:23.972Z,6.35
2022-12-29T01:00:22.930Z,6.22
2022-12-29T01:01:24.017Z,6.31
2022-12-29T01:02:24.695Z,6.34
2022-12-29T01:03:25.318Z,6.34
2022-12-29T01:04:25.569Z,6.31
2022-12-29T01:05:25.574Z,6.31
2022-12-29T01:06:26.227Z,6.34
2022-12-29T01:07:27.592Z,6.39
2022-12-29T01:08:28.172Z,6.43
2022-12-29T01:09:28.807Z,6.34
2022-12-29T01:10:28.457Z,6.31
2022-12-29T01:11:29.188Z,6.41
2022-12-29T01:12:29.402Z,6.46
2022-12-29T01:13:30.404Z,6.46
2022-12-29T01:14:30.344Z,6.5
2022-12-29T01:15:31.646Z,6.46
2022-12-29T01:16:32.284Z,6.43
2022-12-29T01:17:32.767Z,6.44
2022-12-29T01:18:33.300Z,6.44
2022-12-29T01:19:34.517Z,6.49
2022-12-29T01:20:34.474Z,6.47
2022-12-29T01:21:35.119Z,6.43
2022-12-29T01:22:35.682Z,6.34
2022-12-29T01:23:35.976Z,6.35
2022-12-29T01:24:36.578Z,6.32
2022-12-29T01:25:36.513Z,6.41
2022-12-29T01:26:37.050Z,6.32
2022-12-29T01:27:38.638Z,6.34
2022-12-29T01:28:38.609Z,6.28
2022-12-29T01:29:38.245Z,6.29
2022-12-29T01:30:39.221Z,6.25
2022-12-29T01:31:39.634Z,6.32
2022-12-29T01:32:40.792Z,6.36
2022-12-29T01:33:41.054Z,6.38
2022-12-29T01:34:40.986Z,6.28
2022-12-29T01:35:41.904Z,6.31
2022-12-29T01:36:43.123Z,6.2
2022-12-29T01:37:43.061Z,6.19
2022-12-29T01:38:43.359Z,6.16
2022-12-29T01:39:44.309Z,6.19
2022-12-29T01:40:45.256Z,6.16
2022-12-29T01:41:46.585Z,6.2
2022-12-29T01:42:47.082Z,6.1
2022-12-29T01:43:47.345Z,6.13
2022-12-29T01:44:48.390Z,6.07
2022-12-29T01:45:49.549Z,6.07
2022-12-29T01:46:50.560Z,6.16
2022-12-29T01:47:51.194Z,6.16
2022-12-29T01:48:51.722Z,6.1
2022-12-29T01:49:52.414Z,6.12
2022-12-29T01:50:53.344Z,6.2
2022-12-29T01:51:53.786Z,6.16
2022-12-29T01:52:54.359Z,6.25
2022-12-29T01:53:54.967Z,6.31
2022-12-29T01:54:54.926Z,6.34
2022-12-29T01:55:55.837Z,6.38
2022-12-29T01:56:56.724Z,6.43
2022-12-29T01:57:56.940Z,6.46
2022-12-29T01:58:56.867Z,6.5
2022-12-29T01:59:58.112Z,6.49
2022-12-29T02:00:59.273Z,6.62
2022-12-29T02:01:59.822Z,6.62
2022-12-29T02:02:59.861Z,6.6
2022-12-29T02:04:00.003Z,6.6
2022-12-29T02:05:05.828Z,6.74
2022-12-29T02:06:01.932Z,6.65
2022-12-29T02:07:02.159Z,6.67
2022-12-29T02:08:03.096Z,6.75
2022-12-29T02:09:04.372Z,6.75
2022-12-29T02:10:04.631Z,6.75
2022-12-29T02:11:05.597Z,6.72
2022-12-29T02:12:06.016Z,6.75
2022-12-29T02:13:07.817Z,6.72
2022-12-29T02:14:09.692Z,6.7
2022-12-29T02:15:08.400Z,6.7
2022-12-29T02:16:09.702Z,6.72
2022-12-29T02:17:09.248Z,6.82
2022-12-29T02:18:10.764Z,6.72
2022-12-29T02:19:11.042Z,6.68
2022-12-29T02:20:11.700Z,6.74
2022-12-29T02:21:11.908Z,6.56
2022-12-29T02:22:13.099Z,6.74
2022-12-29T02:23:13.587Z,6.57
2022-12-29T02:24:15.012Z,6.57
2022-12-29T02:25:15.216Z,6.64
2022-12-29T02:26:15.536Z,6.62
2022-12-29T02:27:17.000Z,6.62
2022-12-29T02:28:18.677Z,6.62
2022-12-29T02:29:18.929Z,6.57
2022-12-29T02:30:18.869Z,6.53
2022-12-29T02:31:20.361Z,6.54
2022-12-29T02:32:20.477Z,6.49
2022-12-29T02:33:20.884Z,6.44
2022-12-29T02:34:21.698Z,6.44
2022-12-29T02:35:24.066Z,6.5
2022-12-29T02:36:24.312Z,6.47
2022-12-29T02:37:24.234Z,6.65
2022-12-29T02:38:25.492Z,6.62
2022-12-29T02:39:26.058Z,6.67
2022-12-29T02:40:26.712Z,6.64
2022-12-29T02:41:27.343Z,6.62
2022-12-29T02:42:28.383Z,6.54
2022-12-29T02:43:28.920Z,6.71
2022-12-29T02:44:29.530Z,6.75
2022-12-29T02:45:29.864Z,6.72
2022-12-29T02:46:30.801Z,6.7
2022-12-29T02:47:30.781Z,6.72
2022-12-29T02:48:30.430Z,6.74
2022-12-29T02:49:31.952Z,6.74
2022-12-29T02:50:32.172Z,6.74
2022-12-29T02:51:32.164Z,6.75
2022-12-29T02:52:33.730Z,6.68
2022-12-29T02:53:34.917Z,6.74
2022-12-29T02:54:34.724Z,6.8
2022-12-29T02:55:34.944Z,6.8
2022-12-29T02:56:36.151Z,6.85
2022-12-29T02:57:36.436Z,6.87
2022-12-29T02:58:36.659Z,6.85
2022-12-29T02:59:37.314Z,6.87
2022-12-29T03:00:37.537Z,6.8
2022-12-29T03:01:39.708Z,6.82
2022-12-29T03:02:39.410Z,6.83
2022-12-29T03:03:40.113Z,6.92
2022-12-29T03:04:39.509Z,6.86
2022-12-29T03:05:40.729Z,6.83
2022-12-29T03:06:41.664Z,6.89
2022-12-29T03:07:42.032Z,6.87
2022-12-29T03:08:43.256Z,6.8
2022-12-29T03:09:44.578Z,6.82
2022-12-29T03:10:44.525Z,6.8
2022-12-29T03:11:45.498Z,6.7
2022-12-29T03:12:45.505Z,6.68
2022-12-29T03:13:46.178Z,6.75
2022-12-29T03:14:47.111Z,6.71
2022-12-29T03:15:48.335Z,6.64
2022-12-29T03:16:49.031Z,6.72
2022-12-29T03:17:49.230Z,6.71
2022-12-29T03:18:50.456Z,6.64
2022-12-29T03:19:50.382Z,6.57
2022-12-29T03:20:50.930Z,6.59
2022-12-29T03:21:50.889Z,6.6
2022-12-29T03:22:52.111Z,6.62
2022-12-29T03:23:52.381Z,6.62
2022-12-29T03:24:52.971Z,6.59
2022-12-29T03:25:52.906Z,6.6
2022-12-29T03:26:53.584Z,6.59
2022-12-29T03:27:54.116Z,6.56
2022-12-29T03:28:54.113Z,6.64
2022-12-29T03:29:55.065Z,6.62
2022-12-29T03:30:56.433Z,6.57
2022-12-29T03:31:56.931Z,6.56
2022-12-29T03:32:57.992Z,6.46
2022-12-29T03:33:58.935Z,6.49
2022-12-29T03:34:59.867Z,6.6
2022-12-29T03:35:59.852Z,6.57
2022-12-29T03:37:00.838Z,6.62
2022-12-29T03:38:01.167Z,6.59
2022-12-29T03:39:01.455Z,6.6
2022-12-29T03:40:02.044Z,6.46
2022-12-29T03:41:02.344Z,6.56
2022-12-29T03:42:02.585Z,6.6
2022-12-29T03:43:03.205Z,6.64
2022-12-29T03:44:03.633Z,6.64
2022-12-29T03:45:03.704Z,6.57
2022-12-29T03:46:04.717Z,6.64
2022-12-29T03:47:04.901Z,6.59
2022-12-29T03:48:05.930Z,6.53
2022-12-29T03:49:06.856Z,6.56
2022-12-29T03:50:07.779Z,6.56
2022-12-29T03:51:07.706Z,6.54
2022-12-29T03:52:09.193Z,6.56
2022-12-29T03:53:09.702Z,6.62
2022-12-29T03:54:10.091Z,6.46
2022-12-29T03:55:10.406Z,6.46
2022-12-29T03:56:10.766Z,6.64
2022-12-29T03:57:11.471Z,6.62
2022-12-29T03:58:12.034Z,6.59
2022-12-29T03:59:13.119Z,6.43
2022-12-29T04:00:13.585Z,6.47
2022-12-29T04:01:14.901Z,6.44
2022-12-29T04:02:15.291Z,6.47
2022-12-29T04:03:15.630Z,6.47
2022-12-29T04:04:15.775Z,6.49
2022-12-29T04:05:16.366Z,6.49
2022-12-29T04:06:16.584Z,6.52
2022-12-29T04:07:18.601Z,6.47
2022-12-29T04:08:17.575Z,6.49
2022-12-29T04:09:18.817Z,6.52
2022-12-29T04:10:19.759Z,6.49
2022-12-29T04:11:20.079Z,6.44
2022-12-29T04:12:19.965Z,6.44
2022-12-29T04:13:20.256Z,6.52
2022-12-29T04:14:20.485Z,6.49
2022-12-29T04:15:20.710Z,6.49
2022-12-29T04:16:21.174Z,6.46
2022-12-29T04:17:21.273Z,6.52
2022-12-29T04:18:21.521Z,6.53
2022-12-29T04:19:24.176Z,6.49
2022-12-29T04:20:23.897Z,6.44
2022-12-29T04:21:24.312Z,6.52
2022-12-29T04:22:24.841Z,6.44
2022-12-29T04:23:25.603Z,6.65
2022-12-29T04:24:26.929Z,6.56
2022-12-29T04:25:27.211Z,6.64
2022-12-29T04:26:26.904Z,6.64
2022-12-29T04:27:28.430Z,6.64
2022-12-29T04:28:28.650Z,6.59
2022-12-29T04:29:28.476Z,6.59
2022-12-29T04:30:29.628Z,6.59
2022-12-29T04:31:31.190Z,6.62
2022-12-29T04:32:31.510Z,6.43
2022-12-29T04:33:31.629Z,6.49
2022-12-29T04:34:31.582Z,6.46
2022-12-29T04:35:31.970Z,6.44
2022-12-29T04:36:36.056Z,6.46
2022-12-29T04:37:34.588Z,6.46
2022-12-29T04:38:34.520Z,6.44
2022-12-29T04:39:34.525Z,6.52
2022-12-29T04:40:34.832Z,6.47
2022-12-29T04:41:35.516Z,6.46
2022-12-29T04:42:35.441Z,6.49
2022-12-29T04:43:36.470Z,6.49
2022-12-29T04:44:45.296Z,6.5
2022-12-29T04:45:37.398Z,6.5
2022-12-29T04:46:38.610Z,6.6
2022-12-29T04:47:40.328Z,6.62
2022-12-29T04:48:40.324Z,6.54
2022-12-29T04:49:40.564Z,6.65
2022-12-29T04:50:40.778Z,6.53
2022-12-29T04:51:41.000Z,6.56
2022-12-29T04:52:41.203Z,6.62
2022-12-29T04:53:41.263Z,6.6
2022-12-29T04:54:42.509Z,6.59
2022-12-29T04:55:42.858Z,6.67
2022-12-29T04:56:43.053Z,6.71
2022-12-29T04:57:44.288Z,6.65
2022-12-29T04:58:44.512Z,6.75
2022-12-29T04:59:45.029Z,6.7
2022-12-29T05:00:45.303Z,6.75
2022-12-29T05:01:46.598Z,6.71
2022-12-29T05:02:47.695Z,6.7
2022-12-29T05:03:47.637Z,6.72
2022-12-29T05:04:48.391Z,6.72
2022-12-29T05:05:48.612Z,6.82
2022-12-29T05:06:49.306Z,6.82
2022-12-29T05:07:49.970Z,6.8
2022-12-29T05:08:51.221Z,6.86
2022-12-29T05:09:51.917Z,6.77
2022-12-29T05:10:53.277Z,6.89
2022-12-29T05:11:53.214Z,6.85
2022-12-29T05:12:53.148Z,6.89
2022-12-29T05:13:54.434Z,6.85
2022-12-29T05:14:55.365Z,6.8
2022-12-29T05:15:55.590Z,6.87
2022-12-29T05:16:55.984Z,6.85
2022-12-29T05:17:57.061Z,6.83
2022-12-29T05:18:57.545Z,6.87
2022-12-29T05:19:57.512Z,6.8
2022-12-29T05:20:58.433Z,6.87
2022-12-29T05:21:59.655Z,6.8
2022-12-29T05:23:00.157Z,6.85
2022-12-29T05:24:00.893Z,6.89
2022-12-29T05:25:01.621Z,6.82
2022-12-29T05:26:02.615Z,6.9
2022-12-29T05:27:03.624Z,6.92
2022-12-29T05:28:04.132Z,7.07
2022-12-29T05:29:04.684Z,7.01
2022-12-29T05:30:04.979Z,7.08
2022-12-29T05:31:05.679Z,7.08
2022-12-29T05:32:06.301Z,7.05
2022-12-29T05:33:08.152Z,7.04
2022-12-29T05:34:08.212Z,7.03
2022-12-29T05:35:09.121Z,7.1
2022-12-29T05:36:09.092Z,7.13
2022-12-29T05:37:10.604Z,7.13
2022-12-29T05:38:11.137Z,7.21
2022-12-29T05:39:11.644Z,7.1
2022-12-29T05:40:13.564Z,7.22
2022-12-29T05:41:13.683Z,7.22
2022-12-29T05:42:14.868Z,7.21
2022-12-29T05:43:15.109Z,7.19
2022-12-29T05:44:15.208Z,7.14
2022-12-29T05:45:15.137Z,7.19
2022-12-29T05:46:16.289Z,7.19
2022-12-29T05:47:17.587Z,7.25
2022-12-29T05:48:17.876Z,7.18
2022-12-29T05:49:18.891Z,7.15
2022-12-29T05:50:19.682Z,7.15
2022-12-29T05:51:20.115Z,7.15
2022-12-29T05:52:20.604Z,7.15
2022-12-29T05:53:21.526Z,7.18
2022-12-29T05:54:22.588Z,7.19
2022-12-29T05:55:24.650Z,7.18
2022-12-29T05:56:24.238Z,7.15
2022-12-29T05:57:24.455Z,7.22
2022-12-29T05:58:25.398Z,7.23
2022-12-29T05:59:26.314Z,7.21
2022-12-29T06:00:26.544Z,7.26
2022-12-29T06:01:26.730Z,7.37
2022-12-29T06:02:27.896Z,7.28
2022-12-29T06:03:28.147Z,7.31
2022-12-29T06:04:28.269Z,7.4
2022-12-29T06:05:29.177Z,7.39
2022-12-29T06:06:29.564Z,7.4
2022-12-29T06:07:29.825Z,7.41
2022-12-29T06:08:30.050Z,7.39
2022-12-29T06:09:30.698Z,7.43
2022-12-29T06:10:30.953Z,7.44
2022-12-29T06:11:31.251Z,7.46
2022-12-29T06:12:32.403Z,7.46
2022-12-29T06:13:32.345Z,7.44
2022-12-29T06:14:32.773Z,7.39
2022-12-29T06:15:33.699Z,7.47
2022-12-29T06:16:33.899Z,7.46
2022-12-29T06:17:34.575Z,7.39
2022-12-29T06:18:34.816Z,7.44
2022-12-29T06:19:35.018Z,7.47
2022-12-29T06:20:36.007Z,7.44
2022-12-29T06:21:36.917Z,7.43
2022-12-29T06:22:37.856Z,7.33
2022-12-29T06:23:38.617Z,7.41
2022-12-29T06:24:39.691Z,7.32
2022-12-29T06:25:40.723Z,7.43
2022-12-29T06:26:41.311Z,7.44
2022-12-29T06:27:41.825Z,7.46
2022-12-29T06:28:42.206Z,7.43
2022-12-29T06:29:42.140Z,7.47
2022-12-29T06:30:42.398Z,7.46
2022-12-29T06:31:43.157Z,7.46
2022-12-29T06:32:43.219Z,7.43
2022-12-29T06:33:50.314Z,7.43
2022-12-29T06:34:45.082Z,7.44
2022-12-29T06:35:45.206Z,7.44
2022-12-29T06:36:45.866Z,7.44
2022-12-29T06:37:46.598Z,7.41
2022-12-29T06:38:46.937Z,7.46
2022-12-29T06:39:47.187Z,7.4
2022-12-29T06:40:47.703Z,7.43
2022-12-29T06:41:47.700Z,7.41
2022-12-29T06:42:48.618Z,7.46
2022-12-29T06:43:49.553Z,7.39
2022-12-29T06:44:50.617Z,7.43
2022-12-29T06:45:51.370Z,7.46
2022-12-29T06:46:52.108Z,7.41
2022-12-29T06:47:52.035Z,7.46
2022-12-29T06:48:52.292Z,7.47
2022-12-29T06:49:52.861Z,7.39
2022-12-29T06:50:53.371Z,7.37
2022-12-29T06:51:54.298Z,7.4
2022-12-29T06:52:54.975Z,7.37
2022-12-29T06:53:55.227Z,7.31
2022-12-29T06:54:55.441Z,7.32
2022-12-29T06:55:56.659Z,7.31
2022-12-29T06:56:57.242Z,7.37
2022-12-29T06:57:57.459Z,7.4
2022-12-29T06:58:58.430Z,7.37
2022-12-29T06:59:58.993Z,7.32
2022-12-29T07:00:59.413Z,7.39
2022-12-29T07:02:00.173Z,7.32
2022-12-29T07:03:00.685Z,7.33
2022-12-29T07:04:01.313Z,7.41
2022-12-29T07:05:02.326Z,7.41
2022-12-29T07:06:02.541Z,7.36
2022-12-29T07:07:02.769Z,7.31
2022-12-29T07:08:03.393Z,7.33
2022-12-29T07:09:03.177Z,7.32
2022-12-29T07:10:04.159Z,7.43
2022-12-29T07:11:04.821Z,7.41
2022-12-29T07:12:05.863Z,7.44
2022-12-29T07:13:06.684Z,7.43
2022-12-29T07:14:10.204Z,7.47
2022-12-29T07:15:06.935Z,7.48
2022-12-29T07:16:07.837Z,7.46
2022-12-29T07:17:08.600Z,7.46
2022-12-29T07:18:08.288Z,7.39
2022-12-29T07:19:08.774Z,7.5
2022-12-29T07:20:09.740Z,7.46
2022-12-29T07:21:11.040Z,7.46
2022-12-29T07:22:11.696Z,7.47
2022-12-29T07:23:12.619Z,7.43
2022-12-29T07:24:14.603Z,7.44
2022-12-29T07:25:14.828Z,7.44
2022-12-29T07:26:15.453Z,7.4
2022-12-29T07:27:16.060Z,7.33
2022-12-29T07:28:17.868Z,7.36
2022-12-29T07:29:16.789Z,7.44
2022-12-29T07:30:17.999Z,7.44
2022-12-29T07:31:18.206Z,7.44
2022-12-29T07:32:18.394Z,7.44
2022-12-29T07:33:19.335Z,7.46
2022-12-29T07:34:19.972Z,7.44
2022-12-29T07:35:20.768Z,7.41
2022-12-29T07:36:20.715Z,7.43
2022-12-29T07:37:23.342Z,7.48
2022-12-29T07:38:22.287Z,7.47
2022-12-29T07:39:22.440Z,7.43
2022-12-29T07:40:23.276Z,7.55
2022-12-29T07:41:23.268Z,7.51
2022-12-29T07:42:24.111Z,7.55
2022-12-29T07:43:24.310Z,7.55
2022-12-29T07:44:24.941Z,7.51
2022-12-29T07:45:25.064Z,7.59
2022-12-29T07:47:03.078Z,7.58
2022-12-29T07:47:27.171Z,7.55
2022-12-29T07:48:27.545Z,7.61
2022-12-29T07:49:29.053Z,7.62
2022-12-29T07:50:29.755Z,7.67
2022-12-29T07:51:29.968Z,7.72
2022-12-29T07:52:30.533Z,7.62
2022-12-29T07:53:31.033Z,7.74
2022-12-29T07:54:31.261Z,7.67
2022-12-29T07:55:31.831Z,7.62
2022-12-29T07:56:33.090Z,7.74
2022-12-29T07:57:38.111Z,7.78
2022-12-29T07:58:33.604Z,7.77
2022-12-29T07:59:34.330Z,7.78
2022-12-29T08:00:34.550Z,7.88
2022-12-29T08:01:35.654Z,7.9
2022-12-29T08:02:35.908Z,7.83
2022-12-29T08:03:36.363Z,7.84
2022-12-29T08:04:36.944Z,7.88
2022-12-29T08:05:38.037Z,7.9
2022-12-29T08:06:37.709Z,7.91
2022-12-29T08:07:38.664Z,7.91
2022-12-29T08:08:39.633Z,8.05
2022-12-29T08:09:40.595Z,8.01
2022-12-29T08:10:41.008Z,8.08
2022-12-29T08:11:42.021Z,8.06
2022-12-29T08:12:42.304Z,8.08
2022-12-29T08:13:43.282Z,8.13
2022-12-29T08:14:44.269Z,8.06
2022-12-29T08:15:44.437Z,8.05
2022-12-29T08:16:44.581Z,8.17
2022-12-29T08:17:45.824Z,8.06
2022-12-29T08:18:47.043Z,8.17
2022-12-29T08:19:47.999Z,8.18
2022-12-29T08:20:55.790Z,8.21
2022-12-29T08:21:48.891Z,8.17
2022-12-29T08:22:49.397Z,8.2
2022-12-29T08:23:49.618Z,8.2
2022-12-29T08:24:50.507Z,8.27
2022-12-29T08:25:50.894Z,8.34
2022-12-29T08:26:51.841Z,8.36
2022-12-29T08:27:52.433Z,8.36
2022-12-29T08:28:53.685Z,8.42
2022-12-29T08:29:54.048Z,8.44
2022-12-29T08:30:54.318Z,8.36
2022-12-29T08:31:55.430Z,8.32
2022-12-29T08:32:55.363Z,8.35
2022-12-29T08:33:55.995Z,8.28
2022-12-29T08:34:56.655Z,8.27
2022-12-29T08:35:57.131Z,8.34
2022-12-29T08:36:57.077Z,8.36
2022-12-29T08:37:58.000Z,8.35
2022-12-29T08:38:59.044Z,8.36
2022-12-29T08:39:59.694Z,8.38
2022-12-29T08:40:59.951Z,8.34
2022-12-29T08:42:00.478Z,8.34
2022-12-29T08:43:00.839Z,8.31
2022-12-29T08:44:01.788Z,8.38
2022-12-29T08:45:02.340Z,8.35
2022-12-29T08:46:02.716Z,8.39
2022-12-29T08:47:02.694Z,8.5
2022-12-29T08:48:03.620Z,8.57
2022-12-29T08:49:04.111Z,8.56
2022-12-29T08:50:04.038Z,8.63
2022-12-29T08:51:05.037Z,8.59
2022-12-29T08:52:05.712Z,8.64
2022-12-29T08:53:05.942Z,8.69
2022-12-29T08:54:06.167Z,8.69
2022-12-29T08:55:06.437Z,8.63
2022-12-29T08:56:11.088Z,8.78
2022-12-29T08:57:08.086Z,8.79
2022-12-29T08:58:08.372Z,8.75
2022-12-29T08:59:09.044Z,8.86
2022-12-29T09:00:09.544Z,8.9
2022-12-29T09:01:09.933Z,8.93
2022-12-29T09:02:10.515Z,9.03
2022-12-29T09:03:11.799Z,9.08
2022-12-29T09:04:23.328Z,9.02
2022-12-29T09:05:21.639Z,9.09
2022-12-29T09:06:22.023Z,9.05
2022-12-29T09:07:22.510Z,9.13
2022-12-29T09:08:31.468Z,9.19
2022-12-29T09:09:24.147Z,9.27
2022-12-29T09:10:24.356Z,9.39
2022-12-29T09:11:25.331Z,9.33
2022-12-29T09:12:28.182Z,9.52
2022-12-29T09:13:27.030Z,9.55
2022-12-29T09:14:26.959Z,9.59
2022-12-29T09:15:27.909Z,9.9
2022-12-29T09:16:28.667Z,10.05
2022-12-29T09:17:28.521Z,10.12
2022-12-29T09:18:30.134Z,10.43
2022-12-29T09:19:29.349Z,10.55
2022-12-29T09:20:30.322Z,10.75
2022-12-29T09:21:30.908Z,10.68
2022-12-29T09:22:31.710Z,10.76
2022-12-29T09:23:32.955Z,10.86
2022-12-29T09:24:33.625Z,10.9
2022-12-29T09:25:34.295Z,10.94
2022-12-29T09:26:35.366Z,10.89
2022-12-29T09:27:36.457Z,10.84
2022-12-29T09:28:37.022Z,10.89
2022-12-29T09:29:37.519Z,10.9
2022-12-29T09:30:38.015Z,10.92
2022-12-29T09:31:38.972Z,10.95
2022-12-29T09:32:47.045Z,10.92
2022-12-29T09:33:39.497Z,10.9
2022-12-29T09:34:39.451Z,10.94
2022-12-29T09:35:40.769Z,10.9
2022-12-29T09:36:42.071Z,10.98
2022-12-29T09:37:42.603Z,10.98
2022-12-29T09:38:42.872Z,11.07
2022-12-29T09:39:44.052Z,11.05
2022-12-29T09:40:43.227Z,11.2
2022-12-29T09:41:44.446Z,11.23
2022-12-29T09:42:44.976Z,11.3
2022-12-29T09:43:45.023Z,11.34
2022-12-29T09:44:45.458Z,11.38
2022-12-29T09:45:46.679Z,11.35
2022-12-29T09:46:48.210Z,11.34
2022-12-29T09:47:48.966Z,11.41
2022-12-29T09:48:49.915Z,11.38
2022-12-29T09:49:50.175Z,11.33
2022-12-29T09:50:50.845Z,11.25
2022-12-29T09:51:52.205Z,11.13
2022-12-29T09:52:52.699Z,11.15
2022-12-29T09:53:52.914Z,10.97
2022-12-29T09:55:13.458Z,10.95
2022-12-29T09:55:54.858Z,10.98
2022-12-29T09:56:55.188Z,11
2022-12-29T09:57:55.463Z,10.95
2022-12-29T09:58:56.784Z,11.05
2022-12-29T09:59:57.733Z,11.01
2022-12-29T10:01:01.143Z,11.05
2022-12-29T10:01:59.589Z,11.13
2022-12-29T10:02:59.180Z,11.16
2022-12-29T10:03:59.246Z,11.2
2022-12-29T10:05:00.512Z,11.25
2022-12-29T10:06:01.189Z,11.22
2022-12-29T10:07:37.308Z,11.41
2022-12-29T10:08:37.289Z,11.38
2022-12-29T10:09:37.523Z,11.43
2022-12-29T10:10:38.043Z,11.44
2022-12-29T10:11:38.027Z,11.41
2022-12-29T10:12:38.708Z,11.44
2022-12-29T10:13:39.686Z,11.4
2022-12-29T10:14:40.205Z,11.37
2022-12-29T10:15:39.862Z,11.33
2022-12-29T10:16:40.829Z,11.37
2022-12-29T10:17:41.015Z,11.44
2022-12-29T10:18:42.049Z,11.35
2022-12-29T10:19:43.322Z,11.44
2022-12-29T10:20:43.279Z,11.37
2022-12-29T10:21:43.799Z,11.37
2022-12-29T10:22:44.190Z,11.38
2022-12-29T10:23:44.468Z,11.43
2022-12-29T10:24:45.759Z,11.4
2022-12-29T10:25:46.288Z,11.37
2022-12-29T10:26:46.823Z,11.37
2022-12-29T10:27:47.619Z,11.35
2022-12-29T10:28:49.004Z,11.37
2022-12-29T10:29:49.324Z,11.38
2022-12-29T10:30:49.825Z,11.31
2022-12-29T10:31:50.543Z,11.34
2022-12-29T10:32:51.286Z,11.31
2022-12-29T10:33:51.793Z,11.34
2022-12-29T10:34:51.722Z,11.33
2022-12-29T10:35:52.938Z,11.27
2022-12-29T10:36:52.883Z,11.34
2022-12-29T10:37:53.750Z,11.34
2022-12-29T10:38:54.239Z,11.33
2022-12-29T10:39:54.170Z,11.25
2022-12-29T10:40:55.422Z,11.18
2022-12-29T10:41:55.653Z,11.16
2022-12-29T10:42:55.945Z,11.16
2022-12-29T10:43:56.274Z,11.19
2022-12-29T10:44:56.862Z,11.15
2022-12-29T10:45:57.760Z,11.07
2022-12-29T10:46:58.221Z,11.08
2022-12-29T10:47:59.594Z,11.12
2022-12-29T10:49:00.138Z,11
2022-12-29T10:50:00.664Z,10.92
2022-12-29T10:51:07.407Z,10.82
2022-12-29T10:52:02.361Z,10.9
2022-12-29T10:53:02.956Z,10.83
2022-12-29T10:54:03.693Z,10.89
2022-12-29T10:55:04.956Z,10.86
2022-12-29T10:56:05.201Z,10.89
2022-12-29T10:57:05.151Z,10.84
2022-12-29T10:58:06.213Z,10.9
2022-12-29T10:59:06.732Z,10.86
2022-12-29T11:00:07.307Z,10.89
2022-12-29T11:01:07.889Z,10.89
2022-12-29T11:02:09.238Z,10.86
2022-12-29T11:03:09.432Z,11.01
2022-12-29T11:04:09.557Z,10.98
2022-12-29T11:05:10.086Z,11.1
2022-12-29T11:06:10.617Z,11.07
2022-12-29T11:07:16.992Z,10.98
2022-12-29T11:08:12.091Z,11.02
2022-12-29T11:09:12.329Z,11
2022-12-29T11:10:12.888Z,10.94
2022-12-29T11:11:13.829Z,10.94
2022-12-29T11:12:14.045Z,10.87
2022-12-29T11:13:14.582Z,10.94
2022-12-29T11:14:15.263Z,10.97
2022-12-29T11:15:15.859Z,10.95
2022-12-29T11:16:16.528Z,10.95
2022-12-29T11:17:17.353Z,11
2022-12-29T11:18:18.077Z,11.13
2022-12-29T11:19:18.023Z,11.25
2022-12-29T11:20:18.241Z,11.34
2022-12-29T11:21:19.186Z,11.38
2022-12-29T11:22:20.423Z,11.37
2022-12-29T11:23:21.111Z,11.44
2022-12-29T11:24:21.320Z,11.4
2022-12-29T11:25:22.574Z,11.4
2022-12-29T11:26:22.809Z,11.4
2022-12-29T11:27:23.193Z,11.38
2022-12-29T11:28:23.586Z,11.43
2022-12-29T11:29:24.111Z,11.4
2022-12-29T11:30:24.699Z,11.34
2022-12-29T11:31:25.781Z,11.38
2022-12-29T11:32:33.565Z,11.33
2022-12-29T11:33:26.777Z,11.33
2022-12-29T11:34:27.323Z,11.27
2022-12-29T11:35:27.281Z,11.22
2022-12-29T11:36:27.277Z,11.26
2022-12-29T11:37:28.808Z,11.27
2022-12-29T11:38:29.599Z,11.16
2022-12-29T11:39:29.542Z,11.18
2022-12-29T11:40:30.191Z,11.19
2022-12-29T11:41:31.136Z,11.22
2022-12-29T11:42:31.793Z,11.22
2022-12-29T11:43:32.005Z,11.2
2022-12-29T11:44:33.245Z,11.23
2022-12-29T11:45:34.320Z,11.31
2022-12-29T11:46:34.892Z,11.3
2022-12-29T11:47:35.000Z,11.37
2022-12-29T11:48:35.392Z,11.33
2022-12-29T11:49:35.903Z,11.41
2022-12-29T11:50:36.119Z,11.43
2022-12-29T11:51:36.336Z,11.41
2022-12-29T11:52:37.295Z,11.45
2022-12-29T11:53:37.680Z,11.49
2022-12-29T11:54:37.923Z,11.48
2022-12-29T11:55:38.847Z,11.55
2022-12-29T11:56:46.098Z,11.55
2022-12-29T11:57:40.032Z,11.56
2022-12-29T11:58:41.097Z,11.7
2022-12-29T11:59:41.638Z,11.63
2022-12-29T12:00:41.664Z,11.67
2022-12-29T12:01:42.644Z,11.74
2022-12-29T12:02:48.848Z,11.62
2022-12-29T12:03:43.874Z,11.83
2022-12-29T12:04:44.359Z,11.78
2022-12-29T12:05:45.030Z,11.81
2022-12-29T12:06:45.857Z,11.88
2022-12-29T12:07:46.124Z,11.83
2022-12-29T12:08:47.220Z,11.91
2022-12-29T12:09:47.433Z,11.88
2022-12-29T12:10:48.202Z,11.99
2022-12-29T12:11:49.187Z,11.97
2022-12-29T12:12:49.575Z,12.1
2022-12-29T12:13:50.873Z,12.17
2022-12-29T12:14:51.163Z,12.28
2022-12-29T12:15:57.828Z,12.33
2022-12-29T12:16:52.380Z,12.54
2022-12-29T12:17:52.452Z,12.54
2022-12-29T12:18:53.760Z,12.69
2022-12-29T12:19:54.719Z,12.81
2022-12-29T12:20:54.968Z,12.9
2022-12-29T12:21:55.470Z,12.99
2022-12-29T12:22:56.123Z,13.01
2022-12-29T12:23:56.718Z,13.11
2022-12-29T12:24:57.229Z,13.16
2022-12-29T12:25:57.203Z,13.27
2022-12-29T12:26:58.448Z,13.28
2022-12-29T12:27:58.404Z,13.31
2022-12-29T12:28:59.450Z,13.42
2022-12-29T12:30:00.429Z,13.6
2022-12-29T12:31:00.945Z,13.73
2022-12-29T12:32:01.904Z,13.75
2022-12-29T12:33:01.888Z,13.83
2022-12-29T12:34:02.929Z,13.91
2022-12-29T12:35:03.611Z,14.13
2022-12-29T12:36:04.629Z,14.16
2022-12-29T12:37:04.586Z,14.26
2022-12-29T12:38:05.570Z,14.33
2022-12-29T12:39:05.405Z,14.38
2022-12-29T12:40:06.659Z,14.53
2022-12-29T12:41:06.941Z,14.74
2022-12-29T12:42:07.352Z,14.85
2022-12-29T12:43:07.515Z,15.08
2022-12-29T12:44:08.788Z,15.11
2022-12-29T12:45:09.047Z,15.23
2022-12-29T12:46:09.595Z,15.32
2022-12-29T12:47:10.336Z,15.41
2022-12-29T12:48:10.563Z,15.48
2022-12-29T12:49:10.714Z,15.32
2022-12-29T12:50:12.096Z,15.33
2022-12-29T12:51:12.817Z,15.29
2022-12-29T12:52:13.399Z,15.3
2022-12-29T12:53:14.109Z,15.35
2022-12-29T12:54:15.403Z,15.45
2022-12-29T12:55:15.433Z,15.37
2022-12-29T12:56:15.911Z,15.43
2022-12-29T12:57:16.853Z,15.41
2022-12-29T12:58:17.826Z,15.48
2022-12-29T12:59:18.088Z,15.39
2022-12-29T13:00:18.769Z,15.44
2022-12-29T13:01:19.471Z,15.47
2022-12-29T13:02:20.756Z,15.45
2022-12-29T13:03:21.339Z,15.54
2022-12-29T13:04:21.534Z,15.63
2022-12-29T13:05:28.092Z,15.69
2022-12-29T13:06:23.649Z,15.78
2022-12-29T13:07:24.150Z,15.73
2022-12-29T13:08:24.383Z,15.81
2022-12-29T13:09:24.758Z,15.73
2022-12-29T13:10:26.091Z,15.76
2022-12-29T13:11:25.751Z,15.81
2022-12-29T13:12:27.265Z,15.9
2022-12-29T13:13:28.004Z,15.81
2022-12-29T13:14:27.968Z,15.91
2022-12-29T13:15:28.991Z,15.85
2022-12-29T13:16:29.990Z,15.88
2022-12-29T13:17:30.650Z,15.98
2022-12-29T13:18:31.312Z,15.81
2022-12-29T13:19:31.779Z,15.75
2022-12-29T13:20:32.839Z,15.76
2022-12-29T13:21:33.333Z,15.73
2022-12-29T13:22:33.580Z,15.91